Time;durP1;ratioP1;P1;durP2;ratioP2;P2;SDS_P1;SDS_P2;PMS_P1;PMS_P2;Temp;Humidity;BMP_temperature;BMP_pressure;BME280_temperature;BME280_humidity;BME280_pressure;Samples;Min_cycle;Max_cycle;Signal;HPM_P1;HPM_P2
2022/08/23 00:01:53;;;;;;;3.90;3.00;;;20.50;61.90;;;;;;21077253;28;20242;-70
2022/08/23 00:12:09;;;;;;;4.50;3.03;;;20.20;62.80;;;;;;21093214;28;20239;-69
2022/08/23 00:22:11;;;;;;;9.20;3.50;;;20.10;63.40;;;;;;21159429;28;20234;-67
2022/08/23 00:32:21;;;;;;;4.57;3.13;;;19.90;64.10;;;;;;21159943;28;20243;-68
2022/08/23 00:53:02;;;;;;;8.83;3.53;;;19.80;65.50;;;;;;21174056;28;20618;-73
2022/08/23 01:03:07;;;;;;;6.70;3.50;;;19.70;66.50;;;;;;21173593;28;20239;-72
2022/08/23 01:13:16;;;;;;;12.93;4.40;;;19.50;67.50;;;;;;21173283;28;20235;-72
2022/08/23 01:23:35;;;;;;;6.57;3.60;;;19.50;68.30;;;;;;21171965;28;20243;-73
2022/08/23 01:33:39;;;;;;;5.50;3.70;;;19.40;68.60;;;;;;21171136;28;20234;-73
2022/08/23 01:43:40;;;;;;;5.30;3.57;;;19.30;69.20;;;;;;21170158;28;20233;-72
2022/08/23 01:53:43;;;;;;;5.87;4.10;;;19.20;70.20;;;;;;21169586;28;20216;-70
2022/08/23 02:03:44;;;;;;;7.10;3.80;;;19.00;70.90;;;;;;21168691;28;20632;-72
2022/08/23 02:13:51;;;;;;;5.17;4.30;;;19.00;71.70;;;;;;21134199;28;20640;-71
2022/08/23 02:23:53;;;;;;;4.47;3.80;;;18.90;72.40;;;;;;21080459;28;20712;-73
2022/08/23 02:33:54;;;;;;;7.53;4.33;;;18.80;73.00;;;;;;21081703;28;20720;-73
2022/08/23 02:44:14;;;;;;;7.03;4.07;;;18.70;73.60;;;;;;21081135;28;20219;-73
2022/08/23 02:54:16;;;;;;;6.73;4.23;;;18.70;74.50;;;;;;21080626;28;20208;-72
2022/08/23 03:04:17;;;;;;;5.13;3.83;;;18.60;75.20;;;;;;21079187;28;20232;-72
2022/08/23 03:14:19;;;;;;;10.63;4.43;;;18.50;75.80;;;;;;21061281;28;20681;-73
2022/08/23 03:24:22;;;;;;;7.53;5.03;;;18.50;76.70;;;;;;21079113;28;20313;-73
2022/08/23 03:34:24;;;;;;;5.73;4.13;;;18.40;77.20;;;;;;21078092;28;20562;-72
2022/08/23 03:44:26;;;;;;;8.00;5.10;;;18.30;77.80;;;;;;21077734;28;20234;-72
2022/08/23 03:54:28;;;;;;;6.40;4.40;;;18.10;78.30;;;;;;21077747;28;20271;-73
2022/08/23 04:04:30;;;;;;;9.23;5.03;;;18.00;78.90;;;;;;21076983;28;20263;-69
2022/08/23 04:14:32;;;;;;;15.00;4.83;;;17.90;79.30;;;;;;21075502;28;20268;-72
2022/08/23 04:24:33;;;;;;;6.67;4.60;;;17.80;79.70;;;;;;21088385;28;20234;-72
2022/08/23 04:34:38;;;;;;;7.53;4.43;;;17.60;80.40;;;;;;21091217;28;20235;-72
2022/08/23 04:44:40;;;;;;;11.07;4.63;;;17.60;81.10;;;;;;21090527;28;20718;-69
2022/08/23 04:54:42;;;;;;;9.63;5.30;;;17.50;81.40;;;;;;21089872;28;20209;-73
2022/08/23 05:04:43;;;;;;;20.40;7.10;;;17.40;81.90;;;;;;21088562;28;20283;-71
2022/08/23 05:14:45;;;;;;;13.77;5.70;;;17.40;82.60;;;;;;21087962;28;20204;-71
2022/08/23 05:24:48;;;;;;;11.47;5.03;;;17.50;83.40;;;;;;21087467;28;20241;-70
2022/08/23 05:34:50;;;;;;;10.87;4.93;;;17.50;83.60;;;;;;21085388;28;20242;-66
2022/08/23 05:44:51;;;;;;;21.20;6.23;;;17.60;84.00;;;;;;21084768;28;20243;-71
2022/08/23 05:54:54;;;;;;;19.17;6.00;;;17.80;84.10;;;;;;21084384;28;20214;-71
2022/08/23 06:04:56;;;;;;;16.73;6.87;;;17.90;84.40;;;;;;21083456;28;20262;-68
2022/08/23 06:14:58;;;;;;;15.97;6.30;;;18.10;84.90;;;;;;21081893;28;20210;-69
2022/08/23 06:25:00;;;;;;;21.43;6.47;;;18.40;84.90;;;;;;21078818;28;20284;-70
2022/08/23 06:35:01;;;;;;;14.93;5.70;;;18.70;83.80;;;;;;21080544;28;20264;-71
2022/08/23 06:45:23;;;;;;;11.93;6.47;;;19.10;83.30;;;;;;21078140;28;20237;-68
2022/08/23 06:55:35;;;;;;;12.83;6.70;;;19.40;82.30;;;;;;21078671;28;20644;-67
2022/08/23 07:05:36;;;;;;;21.47;7.47;;;19.70;81.50;;;;;;21078090;28;20681;-69
2022/08/23 07:15:38;;;;;;;10.70;5.60;;;20.00;80.80;;;;;;21077592;28;20607;-66
2022/08/23 07:25:40;;;;;;;10.07;5.30;;;20.20;79.60;;;;;;21076862;28;20765;-69
2022/08/23 07:35:49;;;;;;;14.07;4.77;;;20.50;78.40;;;;;;21076610;28;20256;-66
2022/08/23 07:45:51;;;;;;;8.23;4.47;;;20.80;77.30;;;;;;21075772;28;20233;-67
2022/08/23 07:55:54;;;;;;;8.33;4.30;;;21.10;76.20;;;;;;21088276;28;20223;-67
2022/08/23 08:05:56;;;;;;;7.50;3.90;;;21.40;75.10;;;;;;21091165;28;20283;-73
2022/08/23 08:15:58;;;;;;;10.97;4.17;;;21.70;74.20;;;;;;21097841;28;20202;-71
2022/08/23 08:26:05;;;;;;;7.73;3.60;;;22.10;73.20;;;;;;21140600;28;20286;-71
2022/08/23 08:36:08;;;;;;;5.63;3.67;;;22.30;71.90;;;;;;21146374;28;20610;-70
2022/08/23 08:46:35;;;;;;;4.97;3.10;;;22.70;70.90;;;;;;21173087;28;20234;-72
2022/08/23 08:56:38;;;;;;;5.93;3.17;;;22.90;69.60;;;;;;21173349;28;20202;-74
2022/08/23 09:07:05;;;;;;;13.60;3.30;;;23.20;68.10;;;;;;21169280;28;20233;-70
2022/08/23 09:17:30;;;;;;;4.33;2.73;;;23.50;66.60;;;;;;21104106;28;20206;-70
2022/08/23 09:27:32;;;;;;;11.97;2.83;;;23.80;65.20;;;;;;21084422;28;20238;-71
2022/08/23 09:37:59;;;;;;;6.07;2.80;;;24.00;64.10;;;;;;21085876;28;20276;-71
2022/08/23 09:48:02;;;;;;;5.23;3.00;;;24.20;62.70;;;;;;21070991;28;20690;-71
2022/08/23 09:58:17;;;;;;;8.57;3.07;;;24.40;61.30;;;;;;21084670;28;20209;-72
2022/08/23 10:08:26;;;;;;;9.77;2.97;;;24.60;60.20;;;;;;21083635;28;20234;-74
2022/08/23 10:18:52;;;;;;;5.83;2.70;;;24.90;59.40;;;;;;21081897;28;20232;-72
2022/08/23 10:29:36;;;;;;;5.90;2.80;;;25.10;58.40;;;;;;21081108;28;20238;-72
2022/08/23 10:39:47;;;;;;;15.23;2.70;;;25.30;57.70;;;;;;21080719;28;20237;-73
2022/08/23 10:49:51;;;;;;;4.57;2.43;;;25.40;56.60;;;;;;21060514;28;20206;-73
2022/08/23 10:59:54;;;;;;;4.23;2.40;;;25.50;55.80;;;;;;21078701;28;20283;-73
2022/08/23 11:10:41;;;;;;;3.80;2.57;;;25.60;54.70;;;;;;21078747;28;20206;-69
2022/08/23 11:21:04;;;;;;;3.47;2.13;;;25.80;54.10;;;;;;21059376;28;20321;-73
2022/08/23 11:31:07;;;;;;;6.70;2.93;;;25.90;53.30;;;;;;21072733;28;20234;-72
2022/08/23 11:41:29;;;;;;;4.17;2.30;;;26.10;52.70;;;;;;21076368;28;20241;-74
2022/08/23 11:51:44;;;;;;;9.83;2.93;;;26.20;52.20;;;;;;21076504;28;20666;-73
2022/08/23 12:01:46;;;;;;;8.30;2.37;;;26.50;51.50;;;;;;21076056;28;20256;-72
2022/08/23 12:11:53;;;;;;;2.87;2.30;;;26.80;50.50;;;;;;21076259;28;20290;-70
2022/08/23 12:21:55;;;;;;;5.13;2.37;;;27.20;49.40;;;;;;21074902;28;20234;-72
2022/08/23 12:32:10;;;;;;;4.40;2.17;;;27.50;48.60;;;;;;21073055;28;20691;-71
2022/08/23 12:42:15;;;;;;;5.43;2.20;;;27.70;47.70;;;;;;21082582;28;20288;-73
2022/08/23 12:52:24;;;;;;;7.23;2.63;;;27.90;47.00;;;;;;21089708;28;20202;-72
2022/08/23 13:02:30;;;;;;;4.03;3.07;;;27.90;46.50;;;;;;21087669;28;20234;-72
2022/08/23 13:12:32;;;;;;;4.80;2.40;;;27.90;46.20;;;;;;21087512;28;20203;-71
2022/08/23 13:22:36;;;;;;;8.43;2.40;;;28.00;46.00;;;;;;21084854;28;20241;-69
2022/08/23 13:32:51;;;;;;;9.03;2.50;;;28.00;45.60;;;;;;21067449;28;20238;-71
2022/08/23 13:43:02;;;;;;;7.20;2.77;;;27.90;45.50;;;;;;21084981;28;20238;-73
2022/08/23 13:53:06;;;;;;;6.30;2.30;;;28.00;45.40;;;;;;21084119;28;20238;-72
2022/08/23 14:03:16;;;;;;;3.90;2.60;;;28.00;45.30;;;;;;21083639;28;20649;-71
2022/08/23 14:13:20;;;;;;;3.38;2.38;;;28.00;45.30;;;;;;21082793;28;20256;-72
2022/08/23 14:23:22;;;;;;;4.85;2.15;;;28.80;44.60;;;;;;21082230;28;20234;-70
2022/08/23 14:33:24;;;;;;;4.45;1.92;;;31.70;41.80;;;;;;21081182;28;20237;-71
2022/08/23 14:43:27;;;;;;;7.88;2.28;;;31.90;40.50;;;;;;21080651;28;20230;-71
2022/08/23 14:53:32;;;;;;;3.85;2.38;;;30.00;42.00;;;;;;21080748;28;20659;-73
2022/08/23 15:03:34;;;;;;;3.85;2.33;;;29.20;42.60;;;;;;21078845;28;20637;-73
2022/08/23 15:13:37;;;;;;;12.55;2.40;;;28.90;43.50;;;;;;21087867;28;20543;-71
2022/08/23 15:23:56;;;;;;;3.65;2.25;;;28.90;42.90;;;;;;21080349;28;20244;-72
2022/08/23 15:33:58;;;;;;;4.33;2.40;;;28.70;43.00;;;;;;21143971;28;20622;-70
2022/08/23 15:44:01;;;;;;;6.87;2.10;;;28.40;43.30;;;;;;21161928;28;20229;-73
2022/08/23 15:54:04;;;;;;;7.47;2.40;;;28.20;43.40;;;;;;21115954;28;20213;-72
2022/08/23 16:04:05;;;;;;;4.82;2.33;;;28.10;43.60;;;;;;21078679;28;20272;-67
2022/08/23 16:14:07;;;;;;;7.10;2.20;;;28.00;43.70;;;;;;21065564;28;20206;-69
2022/08/23 16:24:09;;;;;;;3.38;2.13;;;27.90;43.90;;;;;;21092803;28;20313;-65
2022/08/23 16:34:14;;;;;;;6.53;2.03;;;27.80;44.10;;;;;;21091747;28;20632;-69
2022/08/23 16:44:16;;;;;;;6.23;2.77;;;27.70;44.10;;;;;;21090548;28;20234;-70
2022/08/23 16:54:19;;;;;;;6.00;2.33;;;27.70;44.20;;;;;;21090486;28;20668;-72
2022/08/23 17:04:23;;;;;;;5.43;2.63;;;27.60;44.20;;;;;;21089482;28;20658;-70
2022/08/23 17:14:31;;;;;;;4.13;2.47;;;27.60;44.10;;;;;;21071385;28;20225;-70
2022/08/23 17:24:33;;;;;;;6.30;2.40;;;27.50;44.40;;;;;;21087568;28;20296;-72
2022/08/23 17:34:35;;;;;;;6.53;2.50;;;27.50;44.50;;;;;;21087144;28;20238;-73
2022/08/23 17:44:36;;;;;;;8.27;2.67;;;27.30;44.60;;;;;;21085706;28;20234;-74
2022/08/23 17:54:39;;;;;;;8.10;2.53;;;27.20;44.90;;;;;;21063968;28;20206;-74
2022/08/23 18:04:41;;;;;;;3.87;2.60;;;27.10;45.10;;;;;;21080603;28;20592;-70
2022/08/23 18:14:43;;;;;;;3.87;3.00;;;26.90;45.30;;;;;;21081043;28;20667;-72
2022/08/23 18:24:45;;;;;;;4.33;3.23;;;26.70;46.00;;;;;;21082553;28;20238;-70
2022/08/23 18:34:47;;;;;;;3.77;2.67;;;26.40;46.70;;;;;;21080888;28;20237;-70
2022/08/23 18:44:48;;;;;;;4.07;2.50;;;26.20;47.10;;;;;;21078619;28;20234;-70
2022/08/23 18:54:50;;;;;;;8.47;4.00;;;26.00;47.60;;;;;;21090254;28;20618;-71
2022/08/23 19:04:52;;;;;;;9.30;5.20;;;25.80;48.10;;;;;;21152931;28;20233;-72
2022/08/23 19:14:54;;;;;;;10.33;3.27;;;25.60;48.50;;;;;;21108174;28;20202;-72
2022/08/23 19:24:55;;;;;;;4.63;2.60;;;25.50;48.80;;;;;;21078755;28;20237;-73
2022/08/23 19:34:57;;;;;;;4.43;2.37;;;25.30;49.10;;;;;;21077969;28;20241;-72
2022/08/23 19:44:59;;;;;;;12.07;2.90;;;25.30;50.40;;;;;;21078960;28;20234;-72
2022/08/23 19:55:00;;;;;;;14.97;3.70;;;25.10;51.90;;;;;;21127823;28;20316;-72
2022/08/23 20:05:08;;;;;;;5.50;2.73;;;25.00;52.50;;;;;;21076871;28;20724;-67
2022/08/23 20:15:12;;;;;;;19.77;3.03;;;25.00;52.40;;;;;;21093552;28;20302;-66
2022/08/23 20:25:14;;;;;;;5.57;2.80;;;24.90;52.10;;;;;;21092765;28;20234;-66
2022/08/23 20:35:16;;;;;;;3.50;2.43;;;24.80;52.00;;;;;;21091955;28;20235;-67
2022/08/23 20:45:18;;;;;;;6.93;2.80;;;24.70;51.40;;;;;;21094913;28;20233;-66
2022/08/23 20:55:20;;;;;;;6.30;2.60;;;24.60;51.40;;;;;;21175131;28;20206;-67
2022/08/23 21:05:22;;;;;;;4.77;2.10;;;24.50;51.40;;;;;;21103129;28;20284;-67
2022/08/23 21:15:24;;;;;;;5.83;2.20;;;24.40;51.70;;;;;;21088730;28;20202;-70
2022/08/23 21:25:26;;;;;;;4.67;2.13;;;24.30;52.30;;;;;;21088177;28;20256;-67
2022/08/23 21:35:28;;;;;;;6.90;2.10;;;24.10;52.90;;;;;;21087498;28;20243;-65
2022/08/23 21:45:30;;;;;;;4.70;2.50;;;24.00;53.60;;;;;;21086381;28;20230;-66
2022/08/23 21:55:32;;;;;;;5.07;2.07;;;23.90;54.20;;;;;;21085493;28;20628;-67
2022/08/23 22:05:39;;;;;;;6.07;2.10;;;23.70;54.80;;;;;;21084951;28;20238;-68
2022/08/23 22:15:41;;;;;;;5.63;2.10;;;23.60;55.40;;;;;;21093544;28;20208;-67
2022/08/23 22:25:42;;;;;;;4.30;2.20;;;23.50;56.00;;;;;;21078414;28;20719;-68
2022/08/23 22:35:44;;;;;;;4.20;2.33;;;23.30;57.00;;;;;;21081475;28;20224;-65
2022/08/23 22:45:58;;;;;;;6.43;2.40;;;23.10;57.40;;;;;;21081429;28;20322;-67
2022/08/23 22:56:02;;;;;;;8.47;2.30;;;23.00;58.00;;;;;;21080824;28;20202;-65
2022/08/23 23:06:03;;;;;;;2.20;1.97;;;22.90;58.40;;;;;;21080493;28;20590;-65
2022/08/23 23:16:08;;;;;;;9.47;2.57;;;22.70;58.90;;;;;;21079423;28;20207;-66
2022/08/23 23:26:10;;;;;;;2.40;2.07;;;22.60;59.50;;;;;;21078857;28;20682;-66
2022/08/23 23:36:12;;;;;;;4.13;2.23;;;22.50;60.00;;;;;;21079265;28;20686;-69
2022/08/23 23:46:19;;;;;;;6.47;2.10;;;22.30;60.60;;;;;;21078202;28;20292;-67
2022/08/23 23:56:22;;;;;;;5.17;2.17;;;22.20;61.20;;;;;;21077928;28;20203;-68
